sensor_id;sensor_type;location;lat;lon;timestamp;temperature;humidity
53880;DHT22;39791;53.184;5.486;2023-11-19T00:01:49;19.60;99.90
53880;DHT22;39791;53.184;5.486;2023-11-19T00:04:14;19.90;99.90
53880;DHT22;39791;53.184;5.486;2023-11-19T00:06:40;21.60;99.90
53880;DHT22;39791;53.184;5.486;2023-11-19T00:09:06;21.20;99.90
53880;DHT22;39791;53.184;5.486;2023-11-19T00:11:33;21.50;99.90
53880;DHT22;39791;53.184;5.486;2023-11-19T00:13:59;21.20;99.90
53880;DHT22;39791;53.184;5.486;2023-11-19T00:16:24;21.60;99.90
53880;DHT22;39791;53.184;5.486;2023-11-19T00:18:50;21.00;99.90
53880;DHT22;39791;53.184;5.486;2023-11-19T00:21:15;22.00;99.90
53880;DHT22;39791;53.184;5.486;2023-11-19T00:23:41;20.70;99.90
53880;DHT22;39791;53.184;5.486;2023-11-19T00:26:07;21.60;99.90
53880;DHT22;39791;53.184;5.486;2023-11-19T00:28:32;20.70;99.90
53880;DHT22;39791;53.184;5.486;2023-11-19T00:30:59;19.80;99.90
53880;DHT22;39791;53.184;5.486;2023-11-19T00:33:24;21.30;99.90
53880;DHT22;39791;53.184;5.486;2023-11-19T00:35:50;20.80;99.90
53880;DHT22;39791;53.184;5.486;2023-11-19T00:38:16;20.60;99.90
53880;DHT22;39791;53.184;5.486;2023-11-19T00:40:41;21.30;99.90
53880;DHT22;39791;53.184;5.486;2023-11-19T00:43:07;19.90;99.90
53880;DHT22;39791;53.184;5.486;2023-11-19T00:45:33;20.70;99.90
53880;DHT22;39791;53.184;5.486;2023-11-19T00:47:58;21.20;99.90
53880;DHT22;39791;53.184;5.486;2023-11-19T00:50:27;20.80;99.90
53880;DHT22;39791;53.184;5.486;2023-11-19T00:52:52;21.40;99.90
53880;DHT22;39791;53.184;5.486;2023-11-19T00:55:18;19.80;99.90
53880;DHT22;39791;53.184;5.486;2023-11-19T00:57:43;19.80;99.90
53880;DHT22;39791;53.184;5.486;2023-11-19T01:00:09;19.70;99.90
53880;DHT22;39791;53.184;5.486;2023-11-19T01:02:45;20.30;99.90
53880;DHT22;39791;53.184;5.486;2023-11-19T01:05:11;19.60;99.90
53880;DHT22;39791;53.184;5.486;2023-11-19T01:07:39;21.40;99.90
53880;DHT22;39791;53.184;5.486;2023-11-19T01:10:05;20.20;99.90
53880;DHT22;39791;53.184;5.486;2023-11-19T01:12:31;19.60;99.90
53880;DHT22;39791;53.184;5.486;2023-11-19T01:14:57;19.70;99.90
53880;DHT22;39791;53.184;5.486;2023-11-19T01:17:25;21.60;99.90
53880;DHT22;39791;53.184;5.486;2023-11-19T01:19:51;21.60;99.90
53880;DHT22;39791;53.184;5.486;2023-11-19T01:22:16;20.40;99.90
53880;DHT22;39791;53.184;5.486;2023-11-19T01:24:42;21.40;99.90
53880;DHT22;39791;53.184;5.486;2023-11-19T01:27:07;20.10;99.90
53880;DHT22;39791;53.184;5.486;2023-11-19T01:29:33;19.80;99.90
53880;DHT22;39791;53.184;5.486;2023-11-19T01:31:59;21.20;99.90
53880;DHT22;39791;53.184;5.486;2023-11-19T01:34:24;21.20;99.90
53880;DHT22;39791;53.184;5.486;2023-11-19T01:36:50;21.30;99.90
53880;DHT22;39791;53.184;5.486;2023-11-19T01:39:16;21.20;99.90
53880;DHT22;39791;53.184;5.486;2023-11-19T01:41:41;19.10;99.90
53880;DHT22;39791;53.184;5.486;2023-11-19T01:44:07;21.10;99.90
53880;DHT22;39791;53.184;5.486;2023-11-19T01:46:33;20.10;99.90
53880;DHT22;39791;53.184;5.486;2023-11-19T01:49:00;19.60;99.90
53880;DHT22;39791;53.184;5.486;2023-11-19T01:51:26;21.90;99.90
53880;DHT22;39791;53.184;5.486;2023-11-19T01:53:52;19.80;99.90
53880;DHT22;39791;53.184;5.486;2023-11-19T01:56:18;19.60;99.90
53880;DHT22;39791;53.184;5.486;2023-11-19T01:58:45;21.30;99.90
53880;DHT22;39791;53.184;5.486;2023-11-19T02:01:12;20.60;99.90
53880;DHT22;39791;53.184;5.486;2023-11-19T02:03:38;20.10;99.90
53880;DHT22;39791;53.184;5.486;2023-11-19T02:06:05;19.40;99.90
53880;DHT22;39791;53.184;5.486;2023-11-19T02:08:30;20.60;99.90
53880;DHT22;39791;53.184;5.486;2023-11-19T02:10:56;20.70;99.90
53880;DHT22;39791;53.184;5.486;2023-11-19T02:13:22;19.20;99.90
53880;DHT22;39791;53.184;5.486;2023-11-19T02:15:48;20.50;99.90
53880;DHT22;39791;53.184;5.486;2023-11-19T02:18:20;19.80;99.90
53880;DHT22;39791;53.184;5.486;2023-11-19T02:20:48;19.50;99.90
53880;DHT22;39791;53.184;5.486;2023-11-19T02:23:14;19.80;99.90
53880;DHT22;39791;53.184;5.486;2023-11-19T02:25:41;19.40;99.90
53880;DHT22;39791;53.184;5.486;2023-11-19T02:28:07;21.10;99.90
53880;DHT22;39791;53.184;5.486;2023-11-19T02:30:33;19.30;99.90
53880;DHT22;39791;53.184;5.486;2023-11-19T02:32:59;19.50;99.90
53880;DHT22;39791;53.184;5.486;2023-11-19T02:35:28;19.30;99.90
53880;DHT22;39791;53.184;5.486;2023-11-19T02:37:57;19.80;99.90
53880;DHT22;39791;53.184;5.486;2023-11-19T02:40:23;19.50;99.90
53880;DHT22;39791;53.184;5.486;2023-11-19T02:42:54;20.40;99.90
53880;DHT22;39791;53.184;5.486;2023-11-19T02:45:22;19.80;99.90
53880;DHT22;39791;53.184;5.486;2023-11-19T02:47:48;19.60;99.90
53880;DHT22;39791;53.184;5.486;2023-11-19T02:50:13;20.30;99.90
53880;DHT22;39791;53.184;5.486;2023-11-19T02:52:42;19.50;99.90
53880;DHT22;39791;53.184;5.486;2023-11-19T02:55:09;19.60;99.90
53880;DHT22;39791;53.184;5.486;2023-11-19T02:57:40;20.00;99.90
53880;DHT22;39791;53.184;5.486;2023-11-19T03:00:14;20.30;99.90
53880;DHT22;39791;53.184;5.486;2023-11-19T03:02:40;20.00;99.90
53880;DHT22;39791;53.184;5.486;2023-11-19T03:05:14;19.60;99.90
53880;DHT22;39791;53.184;5.486;2023-11-19T03:07:43;19.70;99.90
53880;DHT22;39791;53.184;5.486;2023-11-19T03:10:10;19.20;99.90
53880;DHT22;39791;53.184;5.486;2023-11-19T03:12:44;19.60;99.90
53880;DHT22;39791;53.184;5.486;2023-11-19T03:15:10;20.10;99.90
53880;DHT22;39791;53.184;5.486;2023-11-19T03:17:39;19.40;99.90
53880;DHT22;39791;53.184;5.486;2023-11-19T03:20:06;19.60;99.90
53880;DHT22;39791;53.184;5.486;2023-11-19T03:22:32;19.50;99.90
53880;DHT22;39791;53.184;5.486;2023-11-19T03:24:59;19.70;99.90
53880;DHT22;39791;53.184;5.486;2023-11-19T03:27:25;19.50;99.90
53880;DHT22;39791;53.184;5.486;2023-11-19T03:29:50;19.90;99.90
53880;DHT22;39791;53.184;5.486;2023-11-19T03:32:16;20.30;99.90
53880;DHT22;39791;53.184;5.486;2023-11-19T03:34:42;20.50;99.90
53880;DHT22;39791;53.184;5.486;2023-11-19T03:37:07;19.60;99.90
53880;DHT22;39791;53.184;5.486;2023-11-19T03:39:33;20.30;99.90
53880;DHT22;39791;53.184;5.486;2023-11-19T03:41:58;19.70;99.90
53880;DHT22;39791;53.184;5.486;2023-11-19T03:44:26;19.70;99.90
53880;DHT22;39791;53.184;5.486;2023-11-19T03:46:52;19.60;99.90
53880;DHT22;39791;53.184;5.486;2023-11-19T03:49:18;20.50;99.90
53880;DHT22;39791;53.184;5.486;2023-11-19T03:51:43;19.50;99.90
53880;DHT22;39791;53.184;5.486;2023-11-19T03:54:09;19.60;99.90
53880;DHT22;39791;53.184;5.486;2023-11-19T03:56:35;20.10;99.90
53880;DHT22;39791;53.184;5.486;2023-11-19T03:59:00;20.30;99.90
53880;DHT22;39791;53.184;5.486;2023-11-19T04:01:26;20.30;99.90
53880;DHT22;39791;53.184;5.486;2023-11-19T04:03:51;20.40;99.90
53880;DHT22;39791;53.184;5.486;2023-11-19T04:06:18;20.20;99.90
53880;DHT22;39791;53.184;5.486;2023-11-19T04:08:44;19.90;99.90
53880;DHT22;39791;53.184;5.486;2023-11-19T04:11:10;19.60;99.90
53880;DHT22;39791;53.184;5.486;2023-11-19T04:13:36;19.60;99.90
53880;DHT22;39791;53.184;5.486;2023-11-19T04:16:01;19.60;99.90
53880;DHT22;39791;53.184;5.486;2023-11-19T04:18:27;20.00;99.90
53880;DHT22;39791;53.184;5.486;2023-11-19T04:20:52;20.20;99.90
53880;DHT22;39791;53.184;5.486;2023-11-19T04:23:18;19.80;99.90
53880;DHT22;39791;53.184;5.486;2023-11-19T04:25:44;20.00;99.90
53880;DHT22;39791;53.184;5.486;2023-11-19T04:28:09;20.40;99.90
53880;DHT22;39791;53.184;5.486;2023-11-19T04:30:35;19.80;99.90
53880;DHT22;39791;53.184;5.486;2023-11-19T04:33:01;20.10;99.90
53880;DHT22;39791;53.184;5.486;2023-11-19T04:35:26;19.90;99.90
53880;DHT22;39791;53.184;5.486;2023-11-19T04:37:52;20.10;99.90
53880;DHT22;39791;53.184;5.486;2023-11-19T04:40:17;20.30;99.90
53880;DHT22;39791;53.184;5.486;2023-11-19T04:42:48;19.90;99.90
53880;DHT22;39791;53.184;5.486;2023-11-19T04:45:13;20.30;99.90
53880;DHT22;39791;53.184;5.486;2023-11-19T04:47:39;20.20;99.90
53880;DHT22;39791;53.184;5.486;2023-11-19T04:50:05;20.50;99.90
53880;DHT22;39791;53.184;5.486;2023-11-19T04:52:31;20.40;99.90
53880;DHT22;39791;53.184;5.486;2023-11-19T04:54:56;20.20;99.90
53880;DHT22;39791;53.184;5.486;2023-11-19T04:57:22;20.30;99.90
53880;DHT22;39791;53.184;5.486;2023-11-19T04:59:47;20.00;99.90
53880;DHT22;39791;53.184;5.486;2023-11-19T05:02:13;20.00;99.90
53880;DHT22;39791;53.184;5.486;2023-11-19T05:04:43;20.70;99.90
53880;DHT22;39791;53.184;5.486;2023-11-19T05:07:09;20.50;99.90
53880;DHT22;39791;53.184;5.486;2023-11-19T05:09:35;20.50;99.90
53880;DHT22;39791;53.184;5.486;2023-11-19T05:12:00;20.60;99.90
53880;DHT22;39791;53.184;5.486;2023-11-19T05:14:27;20.20;99.90
53880;DHT22;39791;53.184;5.486;2023-11-19T05:16:53;20.90;99.90
53880;DHT22;39791;53.184;5.486;2023-11-19T05:19:18;20.80;99.90
53880;DHT22;39791;53.184;5.486;2023-11-19T05:21:44;20.20;99.90
53880;DHT22;39791;53.184;5.486;2023-11-19T05:24:10;20.50;99.90
53880;DHT22;39791;53.184;5.486;2023-11-19T05:26:37;20.40;99.90
53880;DHT22;39791;53.184;5.486;2023-11-19T05:29:03;20.80;99.90
53880;DHT22;39791;53.184;5.486;2023-11-19T05:31:30;20.20;99.90
53880;DHT22;39791;53.184;5.486;2023-11-19T05:33:55;20.30;99.90
53880;DHT22;39791;53.184;5.486;2023-11-19T05:36:21;20.30;99.90
53880;DHT22;39791;53.184;5.486;2023-11-19T05:38:46;20.50;99.90
53880;DHT22;39791;53.184;5.486;2023-11-19T05:41:12;20.30;99.90
53880;DHT22;39791;53.184;5.486;2023-11-19T05:43:38;20.40;99.90
53880;DHT22;39791;53.184;5.486;2023-11-19T05:46:06;20.50;99.90
53880;DHT22;39791;53.184;5.486;2023-11-19T05:48:32;20.50;99.90
53880;DHT22;39791;53.184;5.486;2023-11-19T05:50:58;20.70;99.90
53880;DHT22;39791;53.184;5.486;2023-11-19T05:53:24;20.80;99.90
53880;DHT22;39791;53.184;5.486;2023-11-19T05:55:50;20.80;99.90
53880;DHT22;39791;53.184;5.486;2023-11-19T05:58:24;20.70;99.90
53880;DHT22;39791;53.184;5.486;2023-11-19T06:00:55;20.70;99.90
53880;DHT22;39791;53.184;5.486;2023-11-19T06:03:21;20.40;99.90
53880;DHT22;39791;53.184;5.486;2023-11-19T06:05:48;20.40;99.90
53880;DHT22;39791;53.184;5.486;2023-11-19T06:08:14;20.60;99.90
53880;DHT22;39791;53.184;5.486;2023-11-19T06:10:43;20.60;99.90
53880;DHT22;39791;53.184;5.486;2023-11-19T06:13:11;20.30;99.90
53880;DHT22;39791;53.184;5.486;2023-11-19T06:15:37;20.80;99.90
53880;DHT22;39791;53.184;5.486;2023-11-19T06:18:03;20.30;99.90
53880;DHT22;39791;53.184;5.486;2023-11-19T06:20:29;20.60;99.90
53880;DHT22;39791;53.184;5.486;2023-11-19T06:22:56;20.40;99.90
53880;DHT22;39791;53.184;5.486;2023-11-19T06:25:22;20.70;99.90
53880;DHT22;39791;53.184;5.486;2023-11-19T06:27:49;20.80;99.90
53880;DHT22;39791;53.184;5.486;2023-11-19T06:30:15;20.40;99.90
53880;DHT22;39791;53.184;5.486;2023-11-19T06:32:40;20.40;99.90
53880;DHT22;39791;53.184;5.486;2023-11-19T06:35:06;20.80;99.90
53880;DHT22;39791;53.184;5.486;2023-11-19T06:37:32;20.80;99.90
53880;DHT22;39791;53.184;5.486;2023-11-19T06:39:58;20.70;99.90
53880;DHT22;39791;53.184;5.486;2023-11-19T06:42:24;20.30;99.90
53880;DHT22;39791;53.184;5.486;2023-11-19T06:44:50;20.40;99.90
53880;DHT22;39791;53.184;5.486;2023-11-19T06:47:17;21.10;99.90
53880;DHT22;39791;53.184;5.486;2023-11-19T06:49:44;20.80;99.90
53880;DHT22;39791;53.184;5.486;2023-11-19T06:52:10;20.70;99.90
53880;DHT22;39791;53.184;5.486;2023-11-19T06:54:35;20.40;99.90
53880;DHT22;39791;53.184;5.486;2023-11-19T06:57:01;20.90;99.90
53880;DHT22;39791;53.184;5.486;2023-11-19T06:59:28;20.40;99.90
53880;DHT22;39791;53.184;5.486;2023-11-19T07:01:55;20.80;99.90
53880;DHT22;39791;53.184;5.486;2023-11-19T07:04:21;20.80;99.90
53880;DHT22;39791;53.184;5.486;2023-11-19T07:06:46;20.40;99.90
53880;DHT22;39791;53.184;5.486;2023-11-19T07:09:13;20.40;99.90
53880;DHT22;39791;53.184;5.486;2023-11-19T07:11:40;20.60;99.90
53880;DHT22;39791;53.184;5.486;2023-11-19T07:14:09;20.70;99.90
53880;DHT22;39791;53.184;5.486;2023-11-19T07:16:35;20.40;99.90
53880;DHT22;39791;53.184;5.486;2023-11-19T07:19:03;20.40;99.90
53880;DHT22;39791;53.184;5.486;2023-11-19T07:21:29;20.50;99.90
53880;DHT22;39791;53.184;5.486;2023-11-19T07:23:57;20.70;99.90
53880;DHT22;39791;53.184;5.486;2023-11-19T07:26:23;20.70;99.90
53880;DHT22;39791;53.184;5.486;2023-11-19T07:28:52;20.40;77.00
53880;DHT22;39791;53.184;5.486;2023-11-19T07:31:17;20.40;1.00
53880;DHT22;39791;53.184;5.486;2023-11-19T07:33:46;20.60;99.90
53880;DHT22;39791;53.184;5.486;2023-11-19T07:36:13;20.80;9.00
53880;DHT22;39791;53.184;5.486;2023-11-19T07:38:38;20.50;99.90
53880;DHT22;39791;53.184;5.486;2023-11-19T07:41:07;20.70;35.40
53880;DHT22;39791;53.184;5.486;2023-11-19T07:43:35;20.80;1.00
53880;DHT22;39791;53.184;5.486;2023-11-19T07:46:01;21.30;99.90
53880;DHT22;39791;53.184;5.486;2023-11-19T07:48:27;20.80;1.00
53880;DHT22;39791;53.184;5.486;2023-11-19T07:50:53;20.90;99.90
53880;DHT22;39791;53.184;5.486;2023-11-19T07:53:19;21.00;35.90
53880;DHT22;39791;53.184;5.486;2023-11-19T07:55:45;20.80;1.00
53880;DHT22;39791;53.184;5.486;2023-11-19T07:58:11;20.60;99.90
53880;DHT22;39791;53.184;5.486;2023-11-19T08:00:37;20.60;91.60
53880;DHT22;39791;53.184;5.486;2023-11-19T08:03:04;20.90;1.00
53880;DHT22;39791;53.184;5.486;2023-11-19T08:05:33;20.90;1.00
53880;DHT22;39791;53.184;5.486;2023-11-19T08:07:58;20.80;99.90
53880;DHT22;39791;53.184;5.486;2023-11-19T08:10:24;20.60;99.90
53880;DHT22;39791;53.184;5.486;2023-11-19T08:12:50;20.90;99.90
53880;DHT22;39791;53.184;5.486;2023-11-19T08:15:15;20.80;12.50
53880;DHT22;39791;53.184;5.486;2023-11-19T08:17:42;20.90;1.00
53880;DHT22;39791;53.184;5.486;2023-11-19T08:20:09;21.10;99.90
53880;DHT22;39791;53.184;5.486;2023-11-19T08:22:36;20.90;99.90
53880;DHT22;39791;53.184;5.486;2023-11-19T08:25:04;20.70;99.90
53880;DHT22;39791;53.184;5.486;2023-11-19T08:27:30;20.80;30.90
53880;DHT22;39791;53.184;5.486;2023-11-19T08:29:55;21.40;1.00
53880;DHT22;39791;53.184;5.486;2023-11-19T08:32:27;21.40;1.00
53880;DHT22;39791;53.184;5.486;2023-11-19T08:34:53;20.90;99.90
53880;DHT22;39791;53.184;5.486;2023-11-19T08:37:19;20.90;99.90
53880;DHT22;39791;53.184;5.486;2023-11-19T08:39:47;21.00;99.90
53880;DHT22;39791;53.184;5.486;2023-11-19T08:42:13;20.90;99.90
53880;DHT22;39791;53.184;5.486;2023-11-19T08:44:38;20.90;99.90
53880;DHT22;39791;53.184;5.486;2023-11-19T08:47:04;21.30;99.90
53880;DHT22;39791;53.184;5.486;2023-11-19T08:49:30;20.80;99.90
53880;DHT22;39791;53.184;5.486;2023-11-19T08:51:55;20.80;99.90
53880;DHT22;39791;53.184;5.486;2023-11-19T08:54:21;21.60;41.90
53880;DHT22;39791;53.184;5.486;2023-11-19T08:56:48;21.10;7.70
53880;DHT22;39791;53.184;5.486;2023-11-19T08:59:14;21.10;1.00
53880;DHT22;39791;53.184;5.486;2023-11-19T09:01:40;20.80;1.00
53880;DHT22;39791;53.184;5.486;2023-11-19T09:04:06;20.80;1.00
53880;DHT22;39791;53.184;5.486;2023-11-19T09:06:32;21.00;1.00
53880;DHT22;39791;53.184;5.486;2023-11-19T09:08:58;21.20;1.00
53880;DHT22;39791;53.184;5.486;2023-11-19T09:11:27;21.20;1.00
53880;DHT22;39791;53.184;5.486;2023-11-19T09:13:53;21.70;1.00
53880;DHT22;39791;53.184;5.486;2023-11-19T09:16:18;21.20;1.00
53880;DHT22;39791;53.184;5.486;2023-11-19T09:18:44;21.20;1.00
53880;DHT22;39791;53.184;5.486;2023-11-19T09:21:12;21.00;1.00
53880;DHT22;39791;53.184;5.486;2023-11-19T09:23:38;21.00;1.00
53880;DHT22;39791;53.184;5.486;2023-11-19T09:26:08;21.00;1.00
53880;DHT22;39791;53.184;5.486;2023-11-19T09:28:33;21.10;99.90
53880;DHT22;39791;53.184;5.486;2023-11-19T09:30:59;21.00;99.90
53880;DHT22;39791;53.184;5.486;2023-11-19T09:33:25;21.40;99.90
53880;DHT22;39791;53.184;5.486;2023-11-19T09:35:51;21.40;99.90
53880;DHT22;39791;53.184;5.486;2023-11-19T09:38:17;21.30;99.90
53880;DHT22;39791;53.184;5.486;2023-11-19T09:40:42;21.50;99.90
53880;DHT22;39791;53.184;5.486;2023-11-19T09:43:09;21.60;99.90
53880;DHT22;39791;53.184;5.486;2023-11-19T09:45:48;21.50;99.90
53880;DHT22;39791;53.184;5.486;2023-11-19T09:48:17;21.70;1.00
53880;DHT22;39791;53.184;5.486;2023-11-19T09:50:47;21.70;90.10
53880;DHT22;39791;53.184;5.486;2023-11-19T09:53:16;21.60;1.00
53880;DHT22;39791;53.184;5.486;2023-11-19T09:55:42;21.40;1.00
53880;DHT22;39791;53.184;5.486;2023-11-19T09:58:08;21.40;1.00
53880;DHT22;39791;53.184;5.486;2023-11-19T10:00:35;22.10;1.00
53880;DHT22;39791;53.184;5.486;2023-11-19T10:03:02;21.60;1.00
53880;DHT22;39791;53.184;5.486;2023-11-19T10:05:30;21.40;1.00
53880;DHT22;39791;53.184;5.486;2023-11-19T10:07:56;21.40;1.00
53880;DHT22;39791;53.184;5.486;2023-11-19T10:10:21;21.70;1.00
53880;DHT22;39791;53.184;5.486;2023-11-19T10:12:50;21.50;99.90
53880;DHT22;39791;53.184;5.486;2023-11-19T10:15:25;21.40;99.90
53880;DHT22;39791;53.184;5.486;2023-11-19T10:17:58;21.20;99.90
53880;DHT22;39791;53.184;5.486;2023-11-19T10:20:24;21.40;99.90
53880;DHT22;39791;53.184;5.486;2023-11-19T10:22:55;21.50;99.90
53880;DHT22;39791;53.184;5.486;2023-11-19T10:25:26;21.20;99.90
53880;DHT22;39791;53.184;5.486;2023-11-19T10:27:53;21.40;99.90
53880;DHT22;39791;53.184;5.486;2023-11-19T10:30:26;21.30;99.90
53880;DHT22;39791;53.184;5.486;2023-11-19T10:33:05;21.30;99.90
53880;DHT22;39791;53.184;5.486;2023-11-19T10:35:32;21.40;99.90
53880;DHT22;39791;53.184;5.486;2023-11-19T10:38:14;21.60;99.90
53880;DHT22;39791;53.184;5.486;2023-11-19T10:40:41;21.60;99.90
53880;DHT22;39791;53.184;5.486;2023-11-19T10:43:07;21.70;99.90
53880;DHT22;39791;53.184;5.486;2023-11-19T10:45:33;21.70;99.90
53880;DHT22;39791;53.184;5.486;2023-11-19T10:47:59;21.50;99.90
53880;DHT22;39791;53.184;5.486;2023-11-19T10:50:25;21.50;99.90
53880;DHT22;39791;53.184;5.486;2023-11-19T10:52:56;21.50;99.90
53880;DHT22;39791;53.184;5.486;2023-11-19T10:55:33;21.60;84.30
53880;DHT22;39791;53.184;5.486;2023-11-19T10:58:08;21.60;99.90
53880;DHT22;39791;53.184;5.486;2023-11-19T11:03:39;21.40;99.90
53880;DHT22;39791;53.184;5.486;2023-11-19T11:06:05;21.60;99.90
53880;DHT22;39791;53.184;5.486;2023-11-19T11:08:31;21.50;99.90
53880;DHT22;39791;53.184;5.486;2023-11-19T11:10:57;21.60;99.90
53880;DHT22;39791;53.184;5.486;2023-11-19T11:13:26;21.40;99.90
53880;DHT22;39791;53.184;5.486;2023-11-19T11:15:55;21.60;99.90
53880;DHT22;39791;53.184;5.486;2023-11-19T11:18:23;21.70;99.90
53880;DHT22;39791;53.184;5.486;2023-11-19T11:20:53;21.80;99.90
53880;DHT22;39791;53.184;5.486;2023-11-19T11:29:00;21.60;60.40
53880;DHT22;39791;53.184;5.486;2023-11-19T11:36:42;21.60;99.90
53880;DHT22;39791;53.184;5.486;2023-11-19T11:39:11;21.70;99.90
53880;DHT22;39791;53.184;5.486;2023-11-19T11:41:36;21.90;99.90
53880;DHT22;39791;53.184;5.486;2023-11-19T11:44:02;21.70;99.90
53880;DHT22;39791;53.184;5.486;2023-11-19T11:49:03;21.80;99.90
53880;DHT22;39791;53.184;5.486;2023-11-19T11:57:08;21.60;68.90
53880;DHT22;39791;53.184;5.486;2023-11-19T11:59:52;21.60;1.00
53880;DHT22;39791;53.184;5.486;2023-11-19T12:02:20;21.50;5.30
53880;DHT22;39791;53.184;5.486;2023-11-19T12:04:48;22.00;60.90
53880;DHT22;39791;53.184;5.486;2023-11-19T12:07:21;21.80;51.20
53880;DHT22;39791;53.184;5.486;2023-11-19T12:09:51;21.80;1.00
53880;DHT22;39791;53.184;5.486;2023-11-19T12:12:21;21.80;1.00
53880;DHT22;39791;53.184;5.486;2023-11-19T12:14:59;21.80;1.00
53880;DHT22;39791;53.184;5.486;2023-11-19T12:20:05;21.70;1.00
53880;DHT22;39791;53.184;5.486;2023-11-19T12:22:43;21.90;1.00
53880;DHT22;39791;53.184;5.486;2023-11-19T12:25:10;21.70;1.00
53880;DHT22;39791;53.184;5.486;2023-11-19T12:27:40;21.70;1.00
53880;DHT22;39791;53.184;5.486;2023-11-19T12:30:06;21.90;1.00
53880;DHT22;39791;53.184;5.486;2023-11-19T12:32:42;22.00;1.00
53880;DHT22;39791;53.184;5.486;2023-11-19T12:35:09;21.80;1.00
53880;DHT22;39791;53.184;5.486;2023-11-19T12:37:46;21.70;1.00
53880;DHT22;39791;53.184;5.486;2023-11-19T12:42:54;21.80;1.00
53880;DHT22;39791;53.184;5.486;2023-11-19T12:45:20;21.70;1.00
53880;DHT22;39791;53.184;5.486;2023-11-19T12:47:47;21.90;1.00
53880;DHT22;39791;53.184;5.486;2023-11-19T12:50:14;21.90;1.00
53880;DHT22;39791;53.184;5.486;2023-11-19T12:52:41;21.80;1.00
53880;DHT22;39791;53.184;5.486;2023-11-19T12:55:28;21.80;1.00
53880;DHT22;39791;53.184;5.486;2023-11-19T12:57:54;21.80;1.00
53880;DHT22;39791;53.184;5.486;2023-11-19T13:00:24;21.80;1.00
53880;DHT22;39791;53.184;5.486;2023-11-19T13:02:55;21.80;1.00
53880;DHT22;39791;53.184;5.486;2023-11-19T13:05:32;21.90;1.00
53880;DHT22;39791;53.184;5.486;2023-11-19T13:08:18;21.60;1.00
53880;DHT22;39791;53.184;5.486;2023-11-19T13:10:53;21.50;1.00
53880;DHT22;39791;53.184;5.486;2023-11-19T13:13:19;21.70;1.00
53880;DHT22;39791;53.184;5.486;2023-11-19T13:15:45;21.40;1.00
53880;DHT22;39791;53.184;5.486;2023-11-19T13:18:11;21.60;1.00
53880;DHT22;39791;53.184;5.486;2023-11-19T13:20:37;21.40;1.00
53880;DHT22;39791;53.184;5.486;2023-11-19T13:23:05;21.50;1.00
53880;DHT22;39791;53.184;5.486;2023-11-19T13:25:31;21.50;1.00
53880;DHT22;39791;53.184;5.486;2023-11-19T13:27:57;21.40;1.00
53880;DHT22;39791;53.184;5.486;2023-11-19T13:30:24;21.40;1.00
53880;DHT22;39791;53.184;5.486;2023-11-19T13:32:50;21.40;1.00
53880;DHT22;39791;53.184;5.486;2023-11-19T13:35:17;21.40;1.00
53880;DHT22;39791;53.184;5.486;2023-11-19T13:37:43;21.40;1.00
53880;DHT22;39791;53.184;5.486;2023-11-19T13:40:10;21.40;1.00
53880;DHT22;39791;53.184;5.486;2023-11-19T13:42:39;21.40;1.00
53880;DHT22;39791;53.184;5.486;2023-11-19T13:45:16;21.50;1.00
53880;DHT22;39791;53.184;5.486;2023-11-19T13:47:45;21.40;1.00
53880;DHT22;39791;53.184;5.486;2023-11-19T13:50:14;21.50;1.00
53880;DHT22;39791;53.184;5.486;2023-11-19T13:52:41;21.30;1.00
53880;DHT22;39791;53.184;5.486;2023-11-19T13:55:09;21.30;1.00
53880;DHT22;39791;53.184;5.486;2023-11-19T13:57:39;21.40;1.00
53880;DHT22;39791;53.184;5.486;2023-11-19T14:00:07;21.30;1.00
53880;DHT22;39791;53.184;5.486;2023-11-19T14:02:41;21.50;1.00
53880;DHT22;39791;53.184;5.486;2023-11-19T14:05:08;21.50;1.00
53880;DHT22;39791;53.184;5.486;2023-11-19T14:07:33;21.50;1.00
53880;DHT22;39791;53.184;5.486;2023-11-19T14:09:59;21.20;1.00
53880;DHT22;39791;53.184;5.486;2023-11-19T14:12:25;21.20;1.00
53880;DHT22;39791;53.184;5.486;2023-11-19T14:14:50;21.40;1.00
53880;DHT22;39791;53.184;5.486;2023-11-19T14:17:16;21.40;1.00
53880;DHT22;39791;53.184;5.486;2023-11-19T14:19:42;21.30;1.00
53880;DHT22;39791;53.184;5.486;2023-11-19T14:22:08;21.30;1.00
53880;DHT22;39791;53.184;5.486;2023-11-19T14:24:34;21.40;1.00
53880;DHT22;39791;53.184;5.486;2023-11-19T14:27:00;21.40;1.00
53880;DHT22;39791;53.184;5.486;2023-11-19T14:29:26;21.20;1.00
53880;DHT22;39791;53.184;5.486;2023-11-19T14:31:52;21.30;1.00
53880;DHT22;39791;53.184;5.486;2023-11-19T14:34:20;21.20;1.00
53880;DHT22;39791;53.184;5.486;2023-11-19T14:36:45;21.40;1.00
53880;DHT22;39791;53.184;5.486;2023-11-19T14:39:11;21.10;1.00
53880;DHT22;39791;53.184;5.486;2023-11-19T14:41:36;21.20;1.00
53880;DHT22;39791;53.184;5.486;2023-11-19T14:44:02;21.50;1.00
53880;DHT22;39791;53.184;5.486;2023-11-19T14:46:29;21.20;1.00
53880;DHT22;39791;53.184;5.486;2023-11-19T14:48:54;21.30;1.00
53880;DHT22;39791;53.184;5.486;2023-11-19T14:51:20;21.30;1.00
53880;DHT22;39791;53.184;5.486;2023-11-19T14:53:46;21.40;1.00
53880;DHT22;39791;53.184;5.486;2023-11-19T14:56:12;21.20;1.00
53880;DHT22;39791;53.184;5.486;2023-11-19T14:58:40;21.20;1.00
53880;DHT22;39791;53.184;5.486;2023-11-19T15:01:06;21.80;1.00
53880;DHT22;39791;53.184;5.486;2023-11-19T15:03:33;21.00;7.50
53880;DHT22;39791;53.184;5.486;2023-11-19T15:05:58;21.10;79.30
53880;DHT22;39791;53.184;5.486;2023-11-19T15:08:24;21.20;99.90
53880;DHT22;39791;53.184;5.486;2023-11-19T15:10:50;20.90;99.90
53880;DHT22;39791;53.184;5.486;2023-11-19T15:13:16;20.80;99.90
53880;DHT22;39791;53.184;5.486;2023-11-19T15:15:41;21.50;99.90
53880;DHT22;39791;53.184;5.486;2023-11-19T15:18:07;21.00;99.90
53880;DHT22;39791;53.184;5.486;2023-11-19T15:20:32;21.00;99.90
53880;DHT22;39791;53.184;5.486;2023-11-19T15:22:58;20.90;99.90
53880;DHT22;39791;53.184;5.486;2023-11-19T15:25:24;21.00;99.90
53880;DHT22;39791;53.184;5.486;2023-11-19T15:27:50;20.80;99.90
53880;DHT22;39791;53.184;5.486;2023-11-19T15:30:16;20.70;99.90
53880;DHT22;39791;53.184;5.486;2023-11-19T15:32:42;20.90;99.90
53880;DHT22;39791;53.184;5.486;2023-11-19T15:35:09;20.60;99.90
53880;DHT22;39791;53.184;5.486;2023-11-19T15:37:36;20.80;1.00
53880;DHT22;39791;53.184;5.486;2023-11-19T15:40:03;20.90;1.00
53880;DHT22;39791;53.184;5.486;2023-11-19T15:42:31;20.70;1.00
53880;DHT22;39791;53.184;5.486;2023-11-19T15:44:57;20.70;1.00
53880;DHT22;39791;53.184;5.486;2023-11-19T15:47:22;20.80;1.00
53880;DHT22;39791;53.184;5.486;2023-11-19T15:49:49;20.60;89.00
53880;DHT22;39791;53.184;5.486;2023-11-19T15:52:15;20.90;99.90
53880;DHT22;39791;53.184;5.486;2023-11-19T15:54:41;21.00;99.90
53880;DHT22;39791;53.184;5.486;2023-11-19T15:57:07;20.60;99.90
53880;DHT22;39791;53.184;5.486;2023-11-19T15:59:32;20.60;99.90
53880;DHT22;39791;53.184;5.486;2023-11-19T16:01:58;20.50;99.90